createdAt,value
2023-11-10T00:01:56.346Z,1.43
2023-11-10T00:04:23.570Z,1.40
2023-11-10T00:06:50.796Z,1.13
2023-11-10T00:09:17.906Z,1.90
2023-11-10T00:11:45.034Z,2.17
2023-11-10T00:14:14.504Z,1.93
2023-11-10T00:16:44.460Z,2.60
2023-11-10T00:19:12.921Z,2.63
2023-11-10T00:21:40.128Z,3.20
2023-11-10T00:24:07.666Z,3.47
2023-11-10T00:26:35.077Z,2.70
2023-11-10T00:29:02.365Z,2.03
2023-11-10T00:31:29.515Z,3.10
2023-11-10T00:33:56.619Z,2.70
2023-11-10T00:36:25.197Z,2.70
2023-11-10T00:38:52.372Z,3.00
2023-11-10T00:41:19.483Z,2.80
2023-11-10T00:43:46.605Z,2.90
2023-11-10T00:46:13.842Z,2.30
2023-11-10T00:48:41.044Z,2.90
2023-11-10T00:51:08.356Z,2.40
2023-11-10T00:53:36.768Z,2.40
2023-11-10T00:56:03.910Z,2.30
2023-11-10T00:58:30.979Z,2.37
2023-11-10T01:00:58.085Z,2.50
2023-11-10T01:03:25.356Z,2.30
2023-11-10T01:05:52.612Z,2.80
2023-11-10T01:08:19.735Z,2.60
2023-11-10T01:10:48.227Z,2.60
2023-11-10T01:13:15.427Z,2.73
2023-11-10T01:15:42.641Z,2.80
2023-11-10T01:18:09.884Z,3.13
2023-11-10T01:20:37.240Z,3.00
2023-11-10T01:23:04.451Z,2.70
2023-11-10T01:25:31.683Z,2.77
2023-11-10T01:28:00.141Z,2.90
2023-11-10T01:30:28.939Z,2.50
2023-11-10T01:32:56.374Z,2.57
2023-11-10T01:35:23.560Z,2.80
2023-11-10T01:37:50.682Z,2.80
2023-11-10T01:40:17.959Z,2.93
2023-11-10T01:42:45.077Z,2.97
2023-11-10T01:45:13.612Z,3.10
2023-11-10T01:47:40.944Z,2.83
2023-11-10T01:50:08.815Z,2.50
2023-11-10T01:52:36.083Z,2.50
2023-11-10T01:55:03.573Z,1.70
2023-11-10T01:57:30.822Z,2.13
2023-11-10T01:59:59.946Z,2.00
2023-11-10T02:02:28.904Z,1.93
2023-11-10T02:04:56.172Z,1.83
2023-11-10T02:07:23.243Z,2.40
2023-11-10T02:09:50.470Z,2.30
2023-11-10T02:12:17.620Z,1.77
2023-11-10T02:14:44.756Z,2.03
2023-11-10T02:17:11.918Z,2.10
2023-11-10T02:19:40.373Z,1.80
2023-11-10T02:22:07.669Z,2.43
2023-11-10T02:24:35.796Z,2.20
2023-11-10T02:27:04.527Z,2.20
2023-11-10T02:29:32.450Z,1.67
2023-11-10T02:31:59.525Z,2.20
2023-11-10T02:34:26.630Z,2.10
2023-11-10T02:36:53.719Z,1.90
2023-11-10T02:39:20.887Z,1.80
2023-11-10T02:41:48.029Z,2.10
2023-11-10T02:44:16.454Z,1.90
2023-11-10T02:46:43.531Z,1.90
2023-11-10T02:49:10.667Z,2.00
2023-11-10T02:51:37.784Z,1.33
2023-11-10T02:54:05.063Z,1.67
2023-11-10T02:56:32.181Z,1.60
2023-11-10T02:58:59.327Z,1.53
2023-11-10T03:01:27.894Z,2.50
2023-11-10T03:03:55.082Z,1.70
2023-11-10T03:06:22.241Z,2.13
2023-11-10T03:08:49.378Z,1.93
2023-11-10T03:11:16.567Z,2.63
2023-11-10T03:13:43.754Z,2.03
2023-11-10T03:16:10.909Z,1.30
2023-11-10T03:18:39.849Z,2.07
2023-11-10T03:21:07.110Z,1.40
2023-11-10T03:23:34.189Z,1.40
2023-11-10T03:26:01.264Z,1.87
2023-11-10T03:28:28.435Z,1.57
2023-11-10T03:30:56.498Z,2.33
2023-11-10T03:33:23.671Z,1.57
2023-11-10T03:35:52.269Z,1.60
2023-11-10T03:38:19.442Z,1.57
2023-11-10T03:40:46.579Z,1.67
2023-11-10T03:43:13.658Z,1.83
2023-11-10T03:45:40.795Z,1.57
2023-11-10T03:48:07.900Z,1.80
2023-11-10T03:50:34.964Z,1.60
2023-11-10T03:53:03.395Z,1.40
2023-11-10T03:55:30.515Z,1.53
2023-11-10T03:57:57.768Z,1.60
2023-11-10T04:00:36.164Z,1.93
2023-11-10T04:03:09.123Z,1.73
2023-11-10T04:05:36.238Z,1.83
2023-11-10T04:08:05.112Z,1.93
2023-11-10T04:10:32.260Z,1.50
2023-11-10T04:12:59.382Z,1.80
2023-11-10T04:15:26.434Z,2.20
2023-11-10T04:17:53.537Z,1.63
2023-11-10T04:20:20.764Z,1.40
2023-11-10T04:22:47.875Z,1.60
2023-11-10T04:25:16.383Z,1.43
2023-11-10T04:27:43.531Z,1.37
2023-11-10T04:30:11.407Z,1.50
2023-11-10T04:32:47.456Z,1.60
2023-11-10T04:35:17.255Z,1.60
2023-11-10T04:37:44.429Z,1.67
2023-11-10T04:40:11.924Z,1.70
2023-11-10T04:42:40.674Z,1.60
2023-11-10T04:45:09.804Z,1.80
2023-11-10T04:47:38.138Z,2.10
2023-11-10T04:50:05.807Z,2.00
2023-11-10T04:52:33.038Z,1.50
2023-11-10T04:55:00.214Z,1.87
2023-11-10T04:57:27.298Z,1.80
2023-11-10T04:59:55.820Z,2.50
2023-11-10T05:02:22.978Z,1.60
2023-11-10T05:04:50.039Z,1.77
2023-11-10T05:07:17.139Z,1.60
2023-11-10T05:09:44.268Z,1.97
2023-11-10T05:12:11.370Z,1.50
2023-11-10T05:14:38.492Z,1.37
2023-11-10T05:17:06.899Z,1.67
2023-11-10T05:19:34.041Z,1.80
2023-11-10T05:22:01.173Z,1.80
2023-11-10T05:24:28.310Z,1.50
2023-11-10T05:26:55.424Z,1.50
2023-11-10T05:29:22.527Z,2.03
2023-11-10T05:31:49.901Z,1.73
2023-11-10T05:34:18.333Z,2.40
2023-11-10T05:36:45.482Z,1.43
2023-11-10T05:39:12.619Z,1.70
2023-11-10T05:41:39.712Z,2.00
2023-11-10T05:44:06.885Z,1.73
2023-11-10T05:46:34.099Z,1.90
2023-11-10T05:49:01.321Z,2.07
2023-11-10T05:51:29.734Z,1.53
2023-11-10T05:53:56.842Z,1.83
2023-11-10T05:56:24.209Z,2.00
2023-11-10T05:58:51.363Z,1.97
2023-11-10T06:01:22.859Z,1.90
2023-11-10T06:03:50.033Z,2.00
2023-11-10T06:06:17.256Z,1.97
2023-11-10T06:08:45.721Z,2.13
2023-11-10T06:11:18.733Z,2.13
2023-11-10T06:13:45.840Z,2.03
2023-11-10T06:16:12.991Z,2.10
2023-11-10T06:18:40.227Z,1.43
2023-11-10T06:21:07.338Z,2.10
2023-11-10T06:23:34.431Z,1.97
2023-11-10T06:26:02.838Z,1.43
2023-11-10T06:28:29.922Z,1.20
2023-11-10T06:30:57.745Z,1.50
2023-11-10T06:33:24.946Z,1.60
2023-11-10T06:35:52.054Z,1.97
2023-11-10T06:38:19.209Z,1.50
2023-11-10T06:40:46.333Z,1.60
2023-11-10T06:43:14.797Z,1.33
2023-11-10T06:45:41.901Z,1.43
2023-11-10T06:48:09.044Z,1.57
2023-11-10T06:50:36.104Z,1.37
2023-11-10T06:53:03.300Z,1.40
2023-11-10T06:55:30.383Z,1.57
2023-11-10T06:57:57.524Z,1.23
2023-11-10T07:00:25.994Z,1.43
2023-11-10T07:02:54.273Z,1.40
2023-11-10T07:05:21.412Z,1.30
2023-11-10T07:07:48.562Z,2.03
2023-11-10T07:10:15.707Z,1.90
2023-11-10T07:12:42.831Z,1.50
2023-11-10T07:15:10.344Z,1.43
2023-11-10T07:17:38.868Z,1.37
2023-11-10T07:20:06.319Z,1.67
2023-11-10T07:22:33.382Z,1.40
2023-11-10T07:25:00.570Z,1.67
2023-11-10T07:27:27.765Z,1.70
2023-11-10T07:29:54.834Z,1.30
2023-11-10T07:32:21.879Z,1.53
2023-11-10T07:34:50.297Z,1.53
2023-11-10T07:37:17.580Z,1.80
2023-11-10T07:39:44.743Z,1.37
2023-11-10T07:42:11.826Z,1.77
2023-11-10T07:44:38.888Z,1.30
2023-11-10T07:47:06.001Z,1.20
2023-11-10T07:49:33.168Z,1.50
2023-11-10T07:52:01.633Z,1.67
2023-11-10T07:54:28.809Z,2.40
2023-11-10T07:56:55.895Z,1.50
2023-11-10T07:59:23.010Z,1.57
2023-11-10T08:01:50.125Z,1.53
2023-11-10T08:04:17.493Z,1.53
2023-11-10T08:06:45.159Z,1.77
2023-11-10T08:09:13.643Z,1.80
2023-11-10T08:11:50.000Z,1.60
2023-11-10T08:14:22.016Z,1.50
2023-11-10T08:16:50.020Z,1.30
2023-11-10T08:19:17.493Z,1.70
2023-11-10T08:21:44.644Z,1.77
2023-11-10T08:24:11.704Z,2.23
2023-11-10T08:26:40.173Z,1.60
2023-11-10T08:29:07.351Z,1.80
2023-11-10T08:31:34.520Z,1.40
2023-11-10T08:34:01.641Z,1.60
2023-11-10T08:36:29.108Z,1.70
2023-11-10T08:38:56.270Z,1.43
2023-11-10T08:41:23.341Z,1.47
2023-11-10T08:43:51.846Z,1.23
2023-11-10T08:46:19.161Z,1.40
2023-11-10T08:48:46.322Z,2.03
2023-11-10T08:51:13.504Z,1.67
2023-11-10T08:53:40.585Z,1.20
2023-11-10T08:56:08.023Z,1.60
2023-11-10T08:58:35.157Z,1.57
2023-11-10T09:01:03.623Z,1.33
2023-11-10T09:03:30.842Z,1.13
2023-11-10T09:05:58.823Z,1.73
2023-11-10T09:08:25.936Z,1.60
2023-11-10T09:10:53.024Z,1.43
2023-11-10T09:13:20.109Z,2.80
2023-11-10T09:15:53.852Z,2.03
2023-11-10T09:18:28.203Z,1.47
2023-11-10T09:20:55.357Z,2.00
2023-11-10T09:23:22.409Z,1.57
2023-11-10T09:25:49.739Z,1.20
2023-11-10T09:28:16.956Z,1.60
2023-11-10T09:30:44.196Z,1.50
2023-11-10T09:33:11.412Z,1.30
2023-11-10T09:35:39.806Z,1.40
2023-11-10T09:38:06.913Z,1.73
2023-11-10T09:40:33.992Z,1.63
2023-11-10T09:43:01.737Z,1.70
2023-11-10T09:45:29.125Z,1.13
2023-11-10T09:47:56.318Z,1.50
2023-11-10T09:50:25.068Z,1.30
2023-11-10T09:52:53.658Z,1.50
2023-11-10T09:55:21.022Z,1.73
2023-11-10T09:57:49.622Z,1.40
2023-11-10T10:00:18.717Z,1.40
2023-11-10T10:02:46.021Z,1.30
2023-11-10T10:05:13.189Z,1.60
2023-11-10T10:07:40.346Z,1.30
2023-11-10T10:10:09.840Z,1.70
2023-11-10T10:12:37.624Z,2.13
2023-11-10T10:15:05.061Z,1.33
2023-11-10T10:17:32.810Z,1.90
2023-11-10T10:20:09.408Z,1.80
2023-11-10T10:22:36.497Z,1.83
2023-11-10T10:25:03.595Z,1.90
2023-11-10T10:27:32.051Z,1.77
2023-11-10T10:29:59.964Z,1.50
2023-11-10T10:32:27.093Z,1.47
2023-11-10T10:34:54.240Z,1.27
2023-11-10T10:37:21.391Z,1.43
2023-11-10T10:39:48.640Z,2.87
2023-11-10T10:42:15.758Z,1.70
2023-11-10T10:44:45.425Z,1.50
2023-11-10T10:47:13.645Z,1.50
2023-11-10T10:49:41.870Z,1.73
2023-11-10T10:52:10.053Z,1.60
2023-11-10T10:54:38.113Z,2.23
2023-11-10T10:57:06.714Z,2.07
2023-11-10T10:59:34.042Z,1.23
2023-11-10T11:02:03.119Z,2.00
2023-11-10T11:04:31.104Z,1.57
2023-11-10T11:07:13.897Z,1.80
2023-11-10T11:09:47.512Z,1.53
2023-11-10T11:12:26.496Z,1.40
2023-11-10T11:14:56.147Z,1.73
2023-11-10T11:17:42.126Z,1.53
2023-11-10T11:20:11.598Z,1.33
2023-11-10T11:22:38.676Z,1.87
2023-11-10T11:25:09.811Z,1.70
2023-11-10T11:27:37.140Z,1.40
2023-11-10T11:30:06.945Z,2.17
2023-11-10T11:32:34.155Z,1.40
2023-11-10T11:35:01.331Z,1.20
2023-11-10T11:37:31.560Z,2.13
2023-11-10T11:39:58.757Z,1.80
2023-11-10T11:42:35.160Z,1.63
2023-11-10T11:45:02.308Z,2.20
2023-11-10T11:47:33.433Z,1.97
2023-11-10T11:50:01.092Z,1.30
2023-11-10T11:52:28.166Z,1.70
2023-11-10T11:54:56.638Z,1.50
2023-11-10T11:57:24.138Z,1.70
2023-11-10T11:59:52.703Z,1.70
2023-11-10T12:02:20.414Z,1.47
2023-11-10T12:04:47.588Z,1.80
2023-11-10T12:07:14.693Z,2.00
2023-11-10T12:09:41.840Z,1.77
2023-11-10T12:12:10.459Z,2.07
2023-11-10T12:14:38.131Z,1.60
2023-11-10T12:17:05.570Z,1.77
2023-11-10T12:19:32.752Z,2.80
2023-11-10T12:22:01.061Z,1.97
2023-11-10T12:24:28.243Z,1.80
2023-11-10T12:26:57.829Z,2.57
2023-11-10T12:29:27.504Z,1.23
2023-11-10T12:31:54.662Z,1.70
2023-11-10T12:34:21.893Z,1.90
2023-11-10T12:36:49.090Z,2.00
2023-11-10T12:39:17.531Z,1.53
2023-11-10T12:41:44.705Z,1.37
2023-11-10T12:44:11.875Z,1.50
2023-11-10T12:46:50.174Z,1.57
2023-11-10T12:49:18.518Z,2.30
2023-11-10T12:51:45.677Z,1.73
2023-11-10T12:54:12.793Z,1.63
2023-11-10T12:56:41.984Z,1.70
2023-11-10T12:59:09.785Z,1.50
2023-11-10T13:01:37.226Z,1.37
2023-11-10T13:04:06.257Z,1.20
2023-11-10T13:06:33.602Z,1.33
2023-11-10T13:09:00.914Z,1.50
2023-11-10T13:11:28.082Z,1.23
2023-11-10T13:13:55.168Z,1.20
2023-11-10T13:16:22.298Z,1.50
2023-11-10T13:18:49.781Z,1.70
2023-11-10T13:21:18.287Z,1.57
2023-11-10T13:23:45.415Z,1.53
2023-11-10T13:26:12.525Z,1.30
2023-11-10T13:28:46.113Z,1.20
2023-11-10T13:31:25.066Z,1.00
2023-11-10T13:33:55.350Z,1.40
2023-11-10T13:36:24.021Z,1.07
2023-11-10T13:38:51.152Z,2.00
2023-11-10T13:41:18.255Z,1.93
2023-11-10T13:43:45.349Z,1.47
2023-11-10T13:46:13.536Z,1.40
2023-11-10T13:48:41.270Z,1.60
2023-11-10T13:51:08.428Z,1.43
2023-11-10T13:53:36.815Z,1.40
2023-11-10T13:56:03.955Z,1.50
2023-11-10T13:58:31.057Z,1.13
2023-11-10T14:00:58.181Z,1.40
2023-11-10T14:03:25.384Z,1.30
2023-11-10T14:05:52.575Z,1.50
2023-11-10T14:08:19.818Z,1.60
2023-11-10T14:10:48.194Z,1.37
2023-11-10T14:13:15.350Z,1.20
2023-11-10T14:15:42.546Z,1.67
2023-11-10T14:18:10.023Z,1.50
2023-11-10T14:20:37.126Z,1.33
2023-11-10T14:23:04.190Z,1.60
2023-11-10T14:25:31.293Z,1.53
2023-11-10T14:27:59.920Z,1.60
2023-11-10T14:30:27.085Z,1.47
2023-11-10T14:32:54.200Z,1.27
2023-11-10T14:35:21.328Z,1.50
2023-11-10T14:37:48.489Z,2.13
2023-11-10T14:40:15.708Z,1.37
2023-11-10T14:42:42.801Z,1.60
2023-11-10T14:45:12.332Z,1.80
2023-11-10T14:47:40.828Z,1.33
2023-11-10T14:50:08.223Z,1.70
2023-11-10T14:52:35.347Z,2.40
2023-11-10T14:55:02.525Z,2.10
2023-11-10T14:57:29.695Z,1.67
2023-11-10T14:59:56.787Z,1.80
2023-11-10T15:02:25.224Z,2.00
2023-11-10T15:04:52.340Z,1.67
2023-11-10T15:07:19.432Z,2.00
2023-11-10T15:09:47.433Z,1.33
2023-11-10T15:12:14.860Z,1.60
2023-11-10T15:14:41.992Z,1.73
2023-11-10T15:17:09.112Z,1.30
2023-11-10T15:19:37.636Z,1.70
2023-11-10T15:22:05.091Z,2.60
2023-11-10T15:24:32.688Z,1.93
2023-11-10T15:27:00.077Z,1.97
2023-11-10T15:29:27.435Z,2.23
2023-11-10T15:31:54.690Z,2.27
2023-11-10T15:34:22.157Z,2.03
2023-11-10T15:36:51.028Z,2.00
2023-11-10T15:39:18.215Z,1.90
2023-11-10T15:41:45.324Z,1.47
2023-11-10T15:44:12.745Z,2.33
2023-11-10T15:46:39.857Z,2.10
2023-11-10T15:49:07.090Z,2.53
2023-11-10T15:51:44.375Z,1.90
2023-11-10T15:54:17.869Z,1.80
2023-11-10T15:56:44.913Z,2.20
2023-11-10T15:59:11.983Z,2.03
2023-11-10T16:01:39.231Z,2.30
2023-11-10T16:04:06.738Z,2.47
2023-11-10T16:06:34.022Z,2.30
2023-11-10T16:09:01.129Z,2.03
2023-11-10T16:11:29.491Z,2.10
2023-11-10T16:13:56.551Z,1.97
2023-11-10T16:16:23.726Z,2.37
2023-11-10T16:18:50.850Z,1.60
2023-11-10T16:21:18.052Z,1.97
2023-11-10T16:23:45.134Z,2.23
2023-11-10T16:26:18.181Z,2.33
2023-11-10T16:28:46.665Z,2.10
2023-11-10T16:31:13.860Z,2.77
2023-11-10T16:33:41.084Z,2.60
2023-11-10T16:36:08.585Z,2.03
2023-11-10T16:38:35.718Z,1.80
2023-11-10T16:41:02.819Z,1.97
2023-11-10T16:43:29.999Z,2.03
2023-11-10T16:45:58.590Z,2.47
2023-11-10T16:48:25.704Z,2.40
2023-11-10T16:50:52.777Z,2.30
2023-11-10T16:53:19.900Z,2.20
2023-11-10T16:55:47.029Z,2.70
2023-11-10T16:58:14.233Z,2.13
2023-11-10T17:00:42.964Z,2.87
2023-11-10T17:03:12.085Z,2.60
2023-11-10T17:05:39.324Z,2.50
2023-11-10T17:08:06.429Z,2.87
2023-11-10T17:10:33.547Z,2.30
2023-11-10T17:13:00.978Z,2.33
2023-11-10T17:15:28.138Z,2.30
2023-11-10T17:17:55.230Z,3.67
2023-11-10T17:20:23.714Z,3.30
2023-11-10T17:22:50.824Z,3.33
2023-11-10T17:25:18.035Z,3.30
2023-11-10T17:27:45.239Z,3.17
2023-11-10T17:30:12.971Z,3.30
2023-11-10T17:32:40.205Z,3.60
2023-11-10T17:35:07.504Z,3.70
2023-11-10T17:37:36.000Z,3.50
2023-11-10T17:40:03.079Z,3.60
2023-11-10T17:42:30.309Z,3.73
2023-11-10T17:44:57.386Z,3.33
2023-11-10T17:47:24.606Z,2.90
2023-11-10T17:49:51.679Z,2.90
2023-11-10T17:52:18.826Z,3.43
2023-11-10T17:54:47.254Z,3.33
2023-11-10T17:57:14.353Z,3.40
2023-11-10T17:59:41.416Z,3.50
2023-11-10T18:02:08.579Z,3.50
2023-11-10T18:04:37.261Z,3.83
2023-11-10T18:07:05.987Z,3.70
2023-11-10T18:09:33.060Z,3.90
2023-11-10T18:12:01.587Z,4.07
2023-11-10T18:14:28.693Z,4.97
2023-11-10T18:16:55.844Z,5.37
2023-11-10T18:19:23.024Z,6.43
2023-11-10T18:21:50.206Z,5.23
2023-11-10T18:24:17.832Z,5.93
2023-11-10T18:26:44.962Z,5.07
2023-11-10T18:29:13.634Z,5.23
2023-11-10T18:31:40.826Z,5.57
2023-11-10T18:34:07.971Z,5.20
2023-11-10T18:36:35.015Z,5.00
2023-11-10T18:39:02.086Z,6.03
2023-11-10T18:41:29.207Z,6.00
2023-11-10T18:43:56.288Z,6.23
2023-11-10T18:46:24.798Z,6.20
2023-11-10T18:48:51.957Z,5.40
2023-11-10T18:51:19.060Z,5.63
2023-11-10T18:53:46.181Z,5.13
2023-11-10T18:56:13.308Z,6.23
2023-11-10T18:58:40.407Z,6.40
2023-11-10T19:01:07.982Z,5.67
2023-11-10T19:03:36.510Z,5.93
2023-11-10T19:06:04.515Z,6.80
2023-11-10T19:08:31.646Z,6.00
2023-11-10T19:10:58.789Z,5.67
2023-11-10T19:13:25.925Z,6.13
2023-11-10T19:15:53.020Z,5.50
2023-11-10T19:18:20.195Z,5.77
2023-11-10T19:20:48.705Z,5.47
2023-11-10T19:23:15.894Z,5.37
2023-11-10T19:25:42.991Z,6.30
2023-11-10T19:28:10.082Z,5.07
2023-11-10T19:30:37.231Z,5.53
2023-11-10T19:33:04.454Z,6.57
2023-11-10T19:35:31.678Z,4.40
2023-11-10T19:38:00.067Z,4.47
2023-11-10T19:40:27.143Z,4.87
2023-11-10T19:42:54.221Z,4.23
2023-11-10T19:45:21.483Z,4.87
2023-11-10T19:47:49.878Z,4.90
2023-11-10T19:50:17.147Z,4.50
2023-11-10T19:52:44.348Z,4.40
2023-11-10T19:55:15.408Z,5.03
2023-11-10T19:57:42.482Z,5.17
2023-11-10T20:02:40.414Z,4.50
2023-11-10T20:05:08.081Z,4.53
2023-11-10T20:07:35.190Z,4.97
2023-11-10T20:10:02.397Z,4.37
2023-11-10T20:12:30.935Z,4.90
2023-11-10T20:14:58.056Z,5.03
2023-11-10T20:17:25.149Z,5.40
2023-11-10T20:19:52.231Z,5.50
2023-11-10T20:22:19.326Z,4.53
2023-11-10T20:24:46.424Z,4.67
2023-11-10T20:27:13.613Z,4.60
2023-11-10T20:29:46.398Z,4.70
2023-11-10T20:32:13.550Z,4.23
2023-11-10T20:34:40.614Z,4.83
2023-11-10T20:37:07.672Z,5.30
2023-11-10T20:39:34.765Z,5.23
2023-11-10T20:42:02.230Z,4.83
2023-11-10T20:44:29.367Z,4.70
2023-11-10T20:46:57.777Z,5.60
2023-11-10T20:49:24.916Z,5.47
2023-11-10T20:51:52.556Z,5.40
2023-11-10T20:54:19.712Z,4.87
2023-11-10T20:56:46.915Z,5.83
2023-11-10T20:59:14.177Z,6.13
2023-11-10T21:01:41.324Z,5.53
2023-11-10T21:04:09.819Z,4.80
2023-11-10T21:06:37.052Z,5.30
2023-11-10T21:09:04.224Z,7.30
2023-11-10T21:11:31.336Z,6.17
2023-11-10T21:13:58.432Z,5.47
2023-11-10T21:16:25.605Z,6.80
2023-11-10T21:18:52.677Z,5.67
2023-11-10T21:21:21.296Z,5.10
2023-11-10T21:23:48.494Z,6.07
2023-11-10T21:26:15.560Z,5.63
2023-11-10T21:28:42.671Z,5.10
2023-11-10T21:31:09.761Z,5.33
2023-11-10T21:33:37.090Z,5.70
2023-11-10T21:36:04.702Z,5.30
2023-11-10T21:38:33.135Z,6.20
2023-11-10T21:41:00.225Z,5.40
2023-11-10T21:43:27.284Z,5.90
2023-11-10T21:45:54.400Z,6.10
2023-11-10T21:48:21.554Z,9.07
2023-11-10T21:50:48.769Z,5.50
2023-11-10T21:53:15.835Z,6.30
2023-11-10T21:55:45.169Z,5.90
2023-11-10T21:58:12.648Z,6.10
2023-11-10T22:00:39.781Z,6.60
2023-11-10T22:03:06.930Z,8.40
2023-11-10T22:05:34.045Z,6.00
2023-11-10T22:08:01.142Z,7.10
2023-11-10T22:10:28.238Z,6.67
2023-11-10T22:12:56.666Z,8.40
2023-11-10T22:15:24.163Z,7.10
2023-11-10T22:17:51.391Z,3.93
2023-11-10T22:20:18.808Z,3.50
2023-11-10T22:22:45.880Z,3.23
2023-11-10T22:25:13.104Z,1.97
2023-11-10T22:27:40.479Z,2.17
2023-11-10T22:30:09.714Z,2.47
2023-11-10T22:32:36.995Z,2.00
2023-11-10T22:35:04.213Z,2.00
2023-11-10T22:37:31.372Z,2.20
2023-11-10T22:39:58.483Z,2.30
2023-11-10T22:42:25.641Z,2.47
2023-11-10T22:44:52.773Z,2.43
2023-11-10T22:47:21.211Z,2.80
2023-11-10T22:49:48.347Z,3.07
2023-11-10T22:52:15.444Z,3.77
2023-11-10T22:54:42.579Z,3.53
2023-11-10T22:57:09.707Z,3.33
2023-11-10T22:59:37.615Z,4.60
2023-11-10T23:02:04.822Z,4.23
2023-11-10T23:04:33.319Z,5.37
2023-11-10T23:07:00.462Z,6.80
2023-11-10T23:09:27.686Z,5.30
2023-11-10T23:11:54.772Z,5.50
2023-11-10T23:14:21.821Z,4.53
2023-11-10T23:16:48.932Z,4.10
2023-11-10T23:19:15.979Z,4.70
2023-11-10T23:21:44.913Z,5.10
2023-11-10T23:24:12.075Z,4.83
2023-11-10T23:26:39.163Z,4.97
2023-11-10T23:29:06.312Z,6.10
2023-11-10T23:31:33.480Z,6.13
2023-11-10T23:34:00.618Z,4.73
2023-11-10T23:36:27.739Z,5.90
2023-11-10T23:38:56.334Z,4.60
2023-11-10T23:41:23.427Z,4.97
2023-11-10T23:43:50.535Z,5.57
2023-11-10T23:46:17.661Z,5.23
2023-11-10T23:48:44.851Z,5.13
2023-11-10T23:51:12.064Z,4.73
2023-11-10T23:53:39.165Z,4.90
2023-11-10T23:56:14.888Z,5.10
2023-11-10T23:58:44.529Z,4.57
